関西国際空港

2017/03/01

島旅 MM232 新石垣空港-関西国際空港 2017/2/16 thu

新石垣空港からぐんぐん上昇していくと・・・ まずは見えてくるのが

20170216_mm232_00tarama

多良間島空港

20170216_mm232_01tarama

新空港が出来る前に、旧空港を見て、歩いて新空港を見にいった想いで

20170216_mm232_02tarama

多良間にもRCが来るようになるのだろうなぁ・・・ DHC6の頃が懐かしい

20170216_mm232_03tarama

この後、宮古、下地を期待したのですが、ライトサイドだった模様

20170216_mm232_04ja8992

見苦しいですが、さくらジンベエを視認

20170216_mm232_05yakushima

わりと雲がポンポンありましたが、屋久島空港

20170216_mm232_06makeshima

馬毛島

20170216_mm232_07tanegashima

結構大きく見えた種子島空港

20170216_mm232_08kanoya

遠くに海上自衛隊鹿屋航空基地

20170216_mm232_09takabatake

航空自衛隊高畑山レーダー

20170216_mm232_10miyazaki

宮崎空港

20170216_mm232_11nyutabaru

空自新田原基地

20170216_mm232_12apj

福岡に向かう桃を発見

20170216_mm232_13contrail

平行するコントレールを飛び越えて

20170216_mm232_14kochi

高知空港

20170216_mm232_15tokushima

徳島空港

20170216_mm232_16rjbb

あんまり解像度がよくなかったけれど、まあ、見えたほうですね。

20170216_mm232_17rjbb

関空RW06Lに着陸して、第2ターミナルへ

20170216_mm232_18rjbb

92番スポットの模様

20170216_mm232_19rjbb

お姉さんが操作してタラップをつけてくれます。

20170216_mm232_20ja816p

APJ232 ROIG-RJBB JA816P A320-214

20170216_mm232_21thander

関空からの道のりがまた、一旅行で、こちらの方が疲れるぅぅ。またふらっと先島行きたいなぁ。

| | コメント (0) | トラックバック (0)

2017/02/17

島旅 MM231 関西国際空港-新石垣空港 2017/2/14 tue

昨年の夏に、とりあえず予約した関空-石垣。たいしたプランもないママ、冬の骨休めのお出かけです。早朝便のため、前日に仕事を終えてから、関空タミ寝で出発です(どこが骨休めやねん・・)。

20170214_0rjbb_00rjbb

関西空港第2ターミナルビルは、拡張されて、国際線専用ビルがオープンした。

20170214_0rjbb_01rjbb

まだ桃組だけの利用で、広々している。

20170214_0rjbb_02rjbb

ターミナル拡張に伴い、バス亭の位置も変った。

20170214_0rjbb_03rjbb

旧国際線側には、麻生さん!

20170214_0rjbb_04rjbb

桃組2番目の出発で、丁度着座するとお日様が「おはよー」

20170214_0rjbb_05rjbb

見慣れた桃色がずらり・・

20170214_0rjbb_06rjbb

RWは24L

20170214_0rjbb_07rjbb

先程到着したベトナムのA350が見れた。

20170214_0rjbb_08rjbb

天候は、曇りがちだなぁ・・・

20170214_1roig_10roig

曇り空が続いて、もう水納島上空かな?

20170214_1roig_11roig

ビジュアルアプローチのようで、北端の平久保崎が見えてきた。

20170214_1roig_12roig

もうタワーにハンドされたかな・・

20170214_1roig_13roig

新石垣空港のダウンウインドに・・

20170214_1roig_14roig

朝の時間は、閑散としているね。

20170214_1roig_15roig

この辺りでベースターン

20170214_1roig_16roig

石垣市街と旧石垣空港跡地が望めます

20170214_1roig_17roig

クロレラ工場を軸にターン

20170214_1roig_18roig

ベースに入って滑走路が一望できます。

20170214_1roig_19roig

さてさて、ファイナル

20170214_1roig_20roig_2

電波方位測定所をチラ見して・・

20170214_1roig_21roig

ランディング

20170214_1roig_22roig

T-4で離脱して・・

20170214_1roig_23roig

後ろにRACのRCが降りてきた

20170214_1roig_24roig

4年前の新空港開港以来の来島です。

20170214_1roig_25roig

AJP231 RJBB-ROIG JA802P A320-214

さて、島でどう過ごしましょうか・・・

| | コメント (0) | トラックバック (0)

2017/01/20

特売旅 MM177 2017/1/17 tue

新春のセールツアー。さて、今回はどこにしよーかなぁ?と、思案したところ・・ 思案橋に決定。桃組で、関空から出発です。

RJBB 170300Z 34010KT 300V020 9999 FEW020 08/M02 Q1028 NOSIG

20170117_ajp177_00rjbb

関空第2ターミナルビルは、拡張中

20170117_ajp177_01rjbb

国際線ビルが独立して、この28日から運用開始です。

20170117_ajp177_02rjbb

小生の行った翌日に、内覧会があった模様です。

20170117_ajp177_03rjbb

あれよと言う間に、桃組の国際線もこんなにあるんだねぇぇ。ビジネスのスピードについていけない。

RJBB 170430Z 33005KT 290V010 9999 FEW025 BKN045 07/M02 Q1028 NOSIG

20170117_ajp177_04ja811p

さて、搭乗です。向かうは長崎。

20170117_ajp177_05ja817p

丁度、フォルクスワーゲンが降りてきた。

20170117_ajp177_06ja811p

桃太郎についていきます。

20170117_ajp177_07ja817p

AJP312 RJAA-RJBB JA817P A320-214

20170117_ajp177_08b18718

BB CAL5157 PANC-RJBB B-18718 B747-409F / B-8280 G280 Mandarin Air 

20170117_ajp177_09rjbb

RWは06

20170117_ajp177_10rjbb

20170117_ajp177_11ki

なんとかKN跡を確保

20170117_ajp177_12rjbe

雲間に神戸空港

20170117_ajp177_13rjob

岡山空港

20170117_ajp177_14rjfu

宗像市あたりから九州上陸

20170117_ajp177_15rjfu

長崎はRW04

20170117_ajp177_16rjfu

多良岳越しに長崎空港を視認

RJFU 170600Z 30005KT 250V340 9999 FEW030 BKN/// 11/M01 Q1027

20170117_ajp177_18rjfu

長崎の目印、仏舎利塔。その左奥はドクヘリを運用する国立長崎医療センター 

20170117_ajp177_19rjfu

海上自衛隊大村航空基地のRW36

20170117_ajp177_20rjfu

20170117_ajp177_21rjfu

20170117_ajp177_22ja811p

AJP177 RJBB-RJFU JA811P A320-214

これから2泊3日のお散歩です。

| | コメント (0) | トラックバック (0)

2016/02/07

雨のちゅら行き 関西国際空港・那覇空港 2016/1/29 fri

ようやく旅行記。昨年の宮崎と違って順調に関西空港到着。搭乗まで時間があるので、雨ですが展望ホールにお出かけ。

20160129_rjbb_00mizoka

Hello! 関空にはこないけど、新みぞか号のポスターが・・・ でも Ciao!じゃないの

RJBB 290230Z 04012KT 3000 -SHRA BR FEW002 BKN005 BKN010 09/08 Q1018 TEMPO SHRA BR

20160129_rjbb_01b16725

EVA132 RCTP-RJBB B-16725 B777-35EER

生臭の靄と雨。ほとんど写真になりません。

20160129_rjbb_02ajp232

展望ホールでは発着案内にあわせて周辺を飛ぶ航空機をぼく管2が表示している。

20160129_rjbb_03ja809p

で、第2ターミナルへ移動して、今回も桃

20160129_rjbb_04b2525

CYZ B-2525 B737-4Q8SF

機内から見慣れない機体をゲット

20160129_rjbb_05b99888

B-99888 GV-SP

こちらにも、なにやら・・・

20160129_rjbb_06ja810p

APJ177 RJBB-RJFU JA810P A320-214

同時刻発の先行する長崎行きを機内から

20160129_rjbb_07ja809p

RW06Rにラインアップ

20160129_rjbb_08ja809p

ずーと雲上飛行で・・・

20160129_rjbb_09izenashima

沖縄至近でようやく地上を視認 伊江島と水納島か

20160129_rjbb_10ieshima

伊江島端を通過。雲の下に、伊江島空港、米海兵隊補助滑走路、同訓練所が見える。

20160129_rjbb_11ieshima

訓練所のへりパッドは、オスプレイモード

20160129_rjbb_12rokd

遠くに嘉手納飛行場が・・ 真ん中の格納庫に尻尾を見せているコブラなんちゃらか・・

20160129_rjbb_13lcu2022

先日来伊江島に米軍艦船が寄港と喧しい、揚陸艇が那覇軍港に向かっているのを見つけました。

ROAH 290700Z 18013KT 9999 FEW015 SCT050 BKN150 24/20 Q1015 RMK 1CU015 3SC050 7AC150 A2999

20160129_rjbb_14ja05kz

青組貨物地区には、助っ人のNCAが駐機中 JA05KZ

20160129_rjbb_15t565740

無印良品なれど、スペマだけは残っています。

20160129_rjbb_16ja81rc

JTA格には、新品のJA01RKとJA81RC

20160129_rjbb_17lcu2022

LCU2022 USAV HARPERS FERRY

海軍の船かと思ったら、米陸軍のラニーミード級汎用揚陸艇とな

20160129_rjbb_18ja809p

APJ217 RJBB-ROAH JA809P A320-214

那覇空港に降り立ち、パチリ

20160129_rjbb_19ja812p

お隣には JA812P

このまま天気が持てばいいのですが、ご存知のとおり翌日は終日雨模様でした。

この日は、那覇市内で新年会。

| | コメント (0) | トラックバック (0)

2015/02/20

熊本いくモン オレンジライナー 2015/2/17 tue

「はるか」で関西国際空港に到着して、出発時刻までしばらくあるので、展望ホールへ寄ってみました。これらは、続報で。さて、今回の搭乗は「JET☆」。最近、お世話になっています。 

20150217_rjbb_00ja16jj

JJP555 RJBB-RJFF JA16JJ A320-232

冬なので北風です。展望ホールから離陸側の上に逆光。胴体下に「JET☆」を改めて認識した。

20150217_rjbb_01ja01jj

JJP152 RJCC-RJBB JA01JJ A320-232

搭乗手続きを済ませて、搭乗待合室へ。小生の搭乗機が到着しました。

RJBB 170600Z 08006KT 9999 FEW025 09/04 Q1009 NOSIG

20150217_ja01jj_02rjbb

ほどなく搭乗して、右側から空撮開始です。電子機器の制限が変更され、航空マニアに空撮が戻ってきた。

20150217_ja01jj_03rjbb

RW06Rからテイクオフ

20150217_ja01jj_04rjbb

関空連絡橋も美しい。

20150217_ja01jj_05rjbe

MAIKO FIVE DEP. をトレースして神戸空港。この後、 HABAR TRN. を飛行したと思われるが、雲上で地上はほとんど見ることが出来ず。ガクッ。

20150217_ja01jj_06rjft

おそらくレーダーベクターでRW25ダウンウインドに誘導され、ビジュアルアプローチかな

20150217_ja01jj_07rjft

靄と逆光で微かに見えるだけですが、チョット補正してみました。

20150217_ja01jj_08rjft

ランディングしてリバース

20150217_ja01jj_09jgtakayubaru

隣接する陸上自衛隊高遊原駐屯地にも、また訪れたのですが、今回はパス。

RJFT 170700Z 28011KT 9999 SCT045 10/M00 Q1012

20150217_rjft_10ja01jj

JJP675 RJBB-RJFT JA01JJ A320-232

オープンの#7スポットへ

20150217_rjft_11kumamon

「モンジュール」能ある熊こと、くまモンに逢いに来たよ。YS見たいけど、時間がありません。またの機会に・・・ これから九州産交バスの旅です。

| | コメント (0) | トラックバック (0)

2013/03/24

道行 関西国際空港 2013/3/5

ここからは、先の石垣行きの道中に撮影した機影を、ボチボチ紹介。

まずは、ピーチ就航一周年の関空第2ターミナルです。

20130305_rjbb_00peach1y

ターミナル前駐車場の北側にある、名も無い丘が撮影ポイント。

RJBB 050000Z 31007KT 280V350 7000 FEW025 08/M03 Q1024 NOSIG

20130305_rjbb_01phbva

20130305_rjbb_02phbva

KLM867 EHAM-RJBB PH-BVA B777-306ER

20130305_rjbb_03ja07jj

20130305_rjbb_04ja07jj

JJP150 RJFF-RJBB JA07JJ A320-232

20130305_rjbb_05hl7753

ABL124 RKPK-RJBB HL7753 A320-232

あいにくRW06で、小型機は途中でRW離脱すると撮影できるシーンが少ない。

20130305_rjbb_06ja804p

APJ192 RJFK-RJBB JA804P A320-214

20130305_rjbb_07ja302k

ANA1732 ROAH-RJBB JA302K B737-54K

20130305_rjbb_08a9vjsp

JSA723 RCTP-RJBB 9V-JSP A320-232

20130305_rjbb_09n13227

UAL137 PGUM-RJBB N13227 B737-824

20130305_rjbb_10n855fd

20130305_rjbb_11n855fd

FDX197 PANC-RJBB N855FD B777-FS2

20130305_rjbb_12ja806p

APJ213 RJBB-ROAH JA806P A320-214

20130305_rjbb_13ja805p

APJ153 RJBB-RJFF JA805P A320-214

RJBB 050200Z 33007KT 290V010 7000 FEW025 09/M01 Q1025 BECMG 30006KT

| | コメント (0) | トラックバック (0)

2013/03/06

速報 ぱいーぐるに逢いに出かけました。

南の島に「ぱいーぐる」なる新しい鳥が現れたそうなぁ。飛び物マニアの小生は、是非この珍鳥を確保に夜を徹してひたすら南西に向かうのだ!

夜行、リムジンとバスと乗り継いで、ついたは大阪湾に浮かぶ関空島。

RJBB 050130Z 31006KT 270V350 7000 FEW025 09/M02 Q1024 NOSIG

2013005_rjbb_a00ja806p

今回も旅のお供は桃

AJP213 RJBB-ROAH JA806P A320-214

ROAH 050400Z 04008KT 360V130 CAVOK 19/04 Q1025 RMK 6SC060 A3029

20130305_ja806p_a01roah

南西の島は遠いのです。ここで乗り継ぎ。

20130305_roah_a02t465719

おー、頭の白い鷲も飛んでるがやー

20130305_roah_a03ja8939

空を飛ぶじんべいざめも登場

20130305_roah_a04ja8674

ゆめジェットに見送られて・・・

ROAH 050630Z 03008KT 340V070 CAVOK 18/06 Q1024 RMK 6SC050 A3024

20130305_ja02an_a05roah

次の鉄の鳥に搭乗

ANA1775 ROAH-ROIG JA02AN B737-781

20130305_ja02an_a06sky

眩しい空を泳いで・・・

ROIG 050700Z 06010KT 9999 FEW045 BKN050 20/10 Q1023

降り立ったは、南ぬ島

20130305_ja02an_a07roig

20130305_roig_a08ja02an

JA02AN 初めてのB737でした

20130305_roig_a09ja8939

おー、じんべえさんが後を追ってきたー!

JTA619 ROAH-ROIG JA8939 B737-446

ROIG 051100Z 06009KT 9999 FEW040 BKN050 19/11 Q1023

20130305_roig_a10ja8939

JTA628 ROIG-ROAH JA8939 B737-446

じんべえさんは鳥目ではないので夜になっても泳いでいます。

さあー、ぱいーぐるを探すぞー!!!

| | コメント (0) | トラックバック (0)

2012/12/19

初桃 関西国際空港 2012/12/18 tue

小生にもLCCの波が・・・

ヒョンとしたことから、桃組みのキャンペーン価格で、チョットお出かけしてみることにしました。夜行バス、リムジンバスと乗り継いで、ついた世界はメリークリスマス。バスの往復運賃より安くお出かけができるのですから、関西の人は裏山ですね。

20121218_rjbb_00kix

知ってましたぁ?サンタクロースは奈々色いるって。

METAR RJBB 172300Z 20004KT 170V230 8000 -SHRA FEW008 SCT045 BKN060 10/06 Q1012 NOSIG RMK 1ST008 4CU045 7SC060 A2991

20121218_rjbb_01kix

フォントやデザインは、最近の流れでしょうか? 設計事務所が同じなのかなぁ。

20121218_rjbb_02ur82029

裏の方に、巨人がひっそりお休み。

UR-82029 An124-100 ADB

20121218_rjbb_03kix  

第2空港島から見る、タワー。かつて造成中にシギを見に来た以来です。

20121218_rjbb_04ja06jj

自分の乗る機体がやってくるかなぁと待っていたら、来たのは橙でした。

JJP185 RJAA-RJBB JA06JJ A320-232

20121218_rjbb_05ja805p

20121218_rjbb_06ja805p

APJ152 RJFF-RJBB JA805P A320-214

初桃です。この後も続々と到着機がやってきましたが、ボーディングの時間が気になってターミナルへ。

20121218_rjbb_07kix

20121218_rjbb_08kix

早々と保安検査を通過して搭乗ロビーへ

20121218_rjbb_09kix

アメリカの会社のように座席の場所毎にエプロンに向かいます。かつての羽田第一搭乗口かホノルルのアイランドターミナルのように細長い通路を歩いて、搭乗口へ。エプロンに出るところで、もう一度バーコードを読んで、搭乗です。

20121218_rjbb_10ja806p

ターミナルを通過している間に、桃組のエアバスは3機になっていました。

20121218_rjbb_11ja806p

Peach 搭乗便は、ナイショ

20121218_rjbb_12hl7737

座席について、ドアクローズまで写真撮影ができた。

AAR144 RKPK-RJBB HL7737 A320-232

20121218_rjbb_13fgspj

AFR292 LFPG-RJBB F-GSPJ B777-228ER

20121218_rjbb_14hl7779

JJA1302 RKSI-RJBB HL7779 B737-85F

20121218_rjbb_15ja806p

さて、ドアクローズとなるところ。乗機は、 JA806P

20121218_rjbb_16ja806p

曇天を抜けて、素晴らしい青空

20121218_rjbb_17ja806p

途中、ゲットした機体はJALのB6のようです。この後、疲れもあって降下前まで熟睡していました。さて、到着地は???

| | コメント (0) | トラックバック (0)

2011/07/06

B787 関西国際空港 2011/7/6 wed

SROV2日目。今日は関空にやってくる。主に導入後の国内線での利用空港を先行してテストしていると思われる。だが関西が入っていることは、実は最初の国際線は、関空からが濃厚かもしれない。関空で見学できる処は、関空展望ホールだが、本日に限り7時半から開放された。バスが無いので、掟破りの徒歩で向かったが開放時間には、100人を超える待ち行列ができていた。、

METAR RJBB 060000Z 26007KT 7000 NSC 27/22 Q1004 NOSIG

20110706_rjbb_00n787ex

お天気の良いのは、いいのだが、この時間だと完全に逆光。一瞬のシャッターチャンスに尻切れとなってしまった。

BOE787 RJTT-RJBB N787EX B788

20110706_rjbb_01n787ex

20110706_rjbb_02n787ex

私見だが、短足なところがエアバス機に比べると優雅さに欠けるかも・・・

20110706_rjbb_03n787ex

RW24Lからスポット105に向けてタクシー

20110706_rjbb_04n787ex

お尻をこちらに向けてEVEの前に駐機した。手前は、B777のお尻

20110706_rjbb_05n787ex

9時前にスポット17に向けてトーイングが始まりました

20110706_rjbb_06n787ex

20110706_rjbb_07n787ex

METAR RJBB 060300Z 29007KT 150V320 9000 FEW030 SCT080 BKN/// 29/20 Q1003 NOSIG

20110706_rjbb_08n787ex

11:25にプッシュパック開始。RNAVは使いません。

20110706_rjbb_09n787ex

20110706_rjbb_10n787ex

20110706_rjbb_11n787ex

CABサイドの計らいか、RWチェンジしながらも到着、出発ともRW24Lでした。

20110706_rjbb_12n787ex

20110706_rjbb_13n787ex

20110706_rjbb_15n787ex

20110706_rjbb_16n787ex

20110706_rjbb_17n787ex

20110706_rjbb_18n787ex

20110706_rjbb_19n787ex

20110706_rjbb_20n787ex

20110706_rjbb_21n787ex

BOE787 RJBB-RJTT N787EX B788

明日は、岡山と広島。生憎の梅雨前線が活発となって、悪天候の模様。ひょっとしてフライト延期かもぉぉぉ、ガガ

RJOB 060852Z 0609/0712 20004KT 3000 -SHRA BR FEW005 SCT008 BKN015
TEMPO 0609/0616 1500 SHRA BR BCFG(patchy fog) FEW000 BKN007 BKN015
BECMG 0616/0618 1500 -SHRA BR BCFG(patchy fog) FEW000 SCT003 BKN007
TEMPO 0618/0624 0700 -SHRA FG FEW000 SCT001 BKN003
BECMG 0700/0703 4000 -SHRA BR FEW000 BKN008 BKN015

ドリームライナーフィーバーに沸いているが、気になるのは沖縄の尾白鷲と小松の渡米。事故の多い夏である。十分注意して過ごしたい。

EEE

| | コメント (0) | トラックバック (0)

2005/09/29

空点描 初物 関西 2005/9/26

     20050926_rjbb_11bc                                                         20050926_rjbb_12lh 20050926_rjbb_13sb 関西空港の展望ホール「Sky View」がリニューアルされたので、美保の帰りに立ち寄った。私にとっての関空初物を集めてみました

左:神戸就航も睨んで、JALとのコードシェアでフライトしているSKYMARK BC201 B767-300ER JA747F  中:ながーいエアバス フランクフルト行 LH741 EA340-600 DxxHK 右:エールフランスのニューカレドニア線が分離したエア・カレドニア SB881 EA330-200 FDJSE

| | コメント (0) | トラックバック (0)

その他のカテゴリー

BI Boading record aircraft Boading record ship FlightTracking lighthouse NAVAIDS RJNT LOG SKY MASSAGE US NAVY USMC うみ おか そら てつ アクシデント エアロック チーム室屋 三沢飛行場 上五島空港 下地島空港 下総飛行場 与那国空港 中標津空港 中部国際空港 久米島空港 五島福江空港 仙台空港 伊江島空港 但馬空港 佐賀空港 入間飛行場 八尾空港 八戸飛行場 出雲空港 函館空港 利尻空港 北九州空港 十勝飛行場 千歳飛行場 博物館 厚木飛行場 名古屋飛行場 喜界空港 嘉手納飛行場 場外 壱岐空港 大分空港 大湊飛行場 大阪国際空港 大館能代空港 天草空港 奄美空港 奥尻空港 宇部山口空港 宇都宮飛行場 宮古空港 宮崎空港 富山空港 小松島飛行場 小松飛行場 屋久島空港 山形空港 岐阜飛行場 岡山空港 岩国飛行場 帯広空港 広島空港 庄内空港 徳之島空港 徳島飛行場 成田国際空港 新潟空港 新田原飛行場 旭川空港 旭川飛行場 明野飛行場 普天間飛行場 木更津飛行場 札幌飛行場 東京国際空港 松山空港 松島飛行場 松本空港 横田飛行場 沖永良部空港 波照間空港 浜松飛行場 海上保安庁 海上自衛隊 海外 熊本空港 百里飛行場 相馬原飛行場 石垣空港 石見空港 礼文空港 神戸空港 福井空港 福岡空港 福島空港 秋田空港 種子島空港 空撮 立川飛行場 築城飛行場 美保飛行場 能登空港 舞鶴飛行場 航空自衛隊 芦屋飛行場 花巻空港 調布飛行場 警務消防 那覇空港 釧路空港 長崎空港 関西国際空港 陸上自衛隊 隠岐空港 霞ヶ浦飛行場 霞目飛行場 青森空港 静岡空港 静浜飛行場 飛行場跡 飛行船 鹿児島空港 鹿屋飛行場